sensor_id;sensor_type;location;lat;lon;timestamp;temperature;humidity
60723;DHT22;46574;52.818;6.516;2023-02-19T00:01:12;9.70;99.90
60723;DHT22;46574;52.818;6.516;2023-02-19T00:03:39;9.70;99.90
60723;DHT22;46574;52.818;6.516;2023-02-19T00:06:07;9.70;99.90
60723;DHT22;46574;52.818;6.516;2023-02-19T00:08:34;9.70;99.90
60723;DHT22;46574;52.818;6.516;2023-02-19T00:11:06;9.70;99.90
60723;DHT22;46574;52.818;6.516;2023-02-19T00:13:43;9.70;99.90
60723;DHT22;46574;52.818;6.516;2023-02-19T00:16:12;9.60;99.90
60723;DHT22;46574;52.818;6.516;2023-02-19T00:18:38;9.70;99.90
60723;DHT22;46574;52.818;6.516;2023-02-19T00:21:04;9.60;99.90
60723;DHT22;46574;52.818;6.516;2023-02-19T00:23:30;9.70;99.90
60723;DHT22;46574;52.818;6.516;2023-02-19T00:25:55;9.70;99.90
60723;DHT22;46574;52.818;6.516;2023-02-19T00:28:21;9.70;99.90
60723;DHT22;46574;52.818;6.516;2023-02-19T00:30:47;9.70;99.90
60723;DHT22;46574;52.818;6.516;2023-02-19T00:33:14;9.70;99.90
60723;DHT22;46574;52.818;6.516;2023-02-19T00:35:40;9.70;99.90
60723;DHT22;46574;52.818;6.516;2023-02-19T00:38:06;9.70;99.90
60723;DHT22;46574;52.818;6.516;2023-02-19T00:40:31;9.70;99.90
60723;DHT22;46574;52.818;6.516;2023-02-19T00:42:57;9.70;99.90
60723;DHT22;46574;52.818;6.516;2023-02-19T00:45:23;9.70;99.90
60723;DHT22;46574;52.818;6.516;2023-02-19T00:47:48;9.70;99.90
60723;DHT22;46574;52.818;6.516;2023-02-19T00:50:14;9.70;99.90
60723;DHT22;46574;52.818;6.516;2023-02-19T00:52:40;9.70;99.90
60723;DHT22;46574;52.818;6.516;2023-02-19T00:55:05;9.70;99.90
60723;DHT22;46574;52.818;6.516;2023-02-19T00:57:31;9.70;99.90
60723;DHT22;46574;52.818;6.516;2023-02-19T00:59:57;9.60;99.90
60723;DHT22;46574;52.818;6.516;2023-02-19T01:02:23;9.60;99.90
60723;DHT22;46574;52.818;6.516;2023-02-19T01:04:48;9.60;99.90
60723;DHT22;46574;52.818;6.516;2023-02-19T01:07:14;9.60;99.90
60723;DHT22;46574;52.818;6.516;2023-02-19T01:09:40;9.60;99.90
60723;DHT22;46574;52.818;6.516;2023-02-19T01:12:05;9.60;99.90
60723;DHT22;46574;52.818;6.516;2023-02-19T01:14:31;9.60;99.90
60723;DHT22;46574;52.818;6.516;2023-02-19T01:16:57;9.60;99.90
60723;DHT22;46574;52.818;6.516;2023-02-19T01:19:22;9.60;99.90
60723;DHT22;46574;52.818;6.516;2023-02-19T01:21:48;9.50;99.90
60723;DHT22;46574;52.818;6.516;2023-02-19T01:24:14;9.50;99.90
60723;DHT22;46574;52.818;6.516;2023-02-19T01:26:41;9.60;99.90
60723;DHT22;46574;52.818;6.516;2023-02-19T01:29:07;9.50;99.90
60723;DHT22;46574;52.818;6.516;2023-02-19T01:31:33;9.50;99.90
60723;DHT22;46574;52.818;6.516;2023-02-19T01:34:00;9.50;99.90
60723;DHT22;46574;52.818;6.516;2023-02-19T01:36:27;9.50;99.90
60723;DHT22;46574;52.818;6.516;2023-02-19T01:38:53;9.50;99.90
60723;DHT22;46574;52.818;6.516;2023-02-19T01:41:22;9.50;99.90
60723;DHT22;46574;52.818;6.516;2023-02-19T01:46:46;9.50;99.90
60723;DHT22;46574;52.818;6.516;2023-02-19T01:49:31;9.40;99.90
60723;DHT22;46574;52.818;6.516;2023-02-19T01:52:10;9.40;99.90
60723;DHT22;46574;52.818;6.516;2023-02-19T01:54:40;9.40;99.90
60723;DHT22;46574;52.818;6.516;2023-02-19T01:57:12;9.40;99.90
60723;DHT22;46574;52.818;6.516;2023-02-19T01:59:41;9.40;99.90
60723;DHT22;46574;52.818;6.516;2023-02-19T02:02:07;9.40;99.90
60723;DHT22;46574;52.818;6.516;2023-02-19T02:04:34;9.40;99.90
60723;DHT22;46574;52.818;6.516;2023-02-19T02:07:02;9.40;99.90
60723;DHT22;46574;52.818;6.516;2023-02-19T02:09:48;9.30;99.90
60723;DHT22;46574;52.818;6.516;2023-02-19T02:12:33;9.30;99.90
60723;DHT22;46574;52.818;6.516;2023-02-19T02:14:58;9.30;99.90
60723;DHT22;46574;52.818;6.516;2023-02-19T02:17:35;9.30;99.90
60723;DHT22;46574;52.818;6.516;2023-02-19T02:23:07;9.30;99.90
60723;DHT22;46574;52.818;6.516;2023-02-19T02:28:34;9.30;99.90
60723;DHT22;46574;52.818;6.516;2023-02-19T02:34:03;9.30;99.90
60723;DHT22;46574;52.818;6.516;2023-02-19T02:36:33;9.30;99.90
60723;DHT22;46574;52.818;6.516;2023-02-19T02:39:03;9.30;99.90
60723;DHT22;46574;52.818;6.516;2023-02-19T02:41:32;9.30;99.90
60723;DHT22;46574;52.818;6.516;2023-02-19T02:43:58;9.30;99.90
60723;DHT22;46574;52.818;6.516;2023-02-19T02:46:28;9.30;99.90
60723;DHT22;46574;52.818;6.516;2023-02-19T02:48:57;9.30;99.90
60723;DHT22;46574;52.818;6.516;2023-02-19T02:51:43;9.30;99.90
60723;DHT22;46574;52.818;6.516;2023-02-19T02:54:17;9.30;99.90
60723;DHT22;46574;52.818;6.516;2023-02-19T02:57:03;9.30;99.90
60723;DHT22;46574;52.818;6.516;2023-02-19T02:59:35;9.20;99.90
60723;DHT22;46574;52.818;6.516;2023-02-19T03:02:17;9.20;99.90
60723;DHT22;46574;52.818;6.516;2023-02-19T03:05:08;9.20;99.90
60723;DHT22;46574;52.818;6.516;2023-02-19T03:08:15;9.20;99.90
60723;DHT22;46574;52.818;6.516;2023-02-19T03:10:53;9.20;99.90
60723;DHT22;46574;52.818;6.516;2023-02-19T03:13:33;9.20;99.90
60723;DHT22;46574;52.818;6.516;2023-02-19T03:16:23;9.10;99.90
60723;DHT22;46574;52.818;6.516;2023-02-19T03:19:12;9.10;99.90
60723;DHT22;46574;52.818;6.516;2023-02-19T03:22:01;9.10;99.90
60723;DHT22;46574;52.818;6.516;2023-02-19T03:24:30;9.10;99.90
60723;DHT22;46574;52.818;6.516;2023-02-19T03:27:18;9.10;99.90
60723;DHT22;46574;52.818;6.516;2023-02-19T03:29:46;9.10;99.90
60723;DHT22;46574;52.818;6.516;2023-02-19T03:32:17;9.10;99.90
60723;DHT22;46574;52.818;6.516;2023-02-19T03:34:51;9.10;99.90
60723;DHT22;46574;52.818;6.516;2023-02-19T03:37:31;9.10;99.90
60723;DHT22;46574;52.818;6.516;2023-02-19T03:39:57;9.10;99.90
60723;DHT22;46574;52.818;6.516;2023-02-19T03:42:44;9.10;99.90
60723;DHT22;46574;52.818;6.516;2023-02-19T03:48:38;9.00;99.90
60723;DHT22;46574;52.818;6.516;2023-02-19T03:51:17;9.00;99.90
60723;DHT22;46574;52.818;6.516;2023-02-19T03:56:41;9.00;99.90
60723;DHT22;46574;52.818;6.516;2023-02-19T04:01:50;9.00;99.90
60723;DHT22;46574;52.818;6.516;2023-02-19T04:04:27;9.00;99.90
60723;DHT22;46574;52.818;6.516;2023-02-19T04:06:55;9.00;99.90
60723;DHT22;46574;52.818;6.516;2023-02-19T04:09:24;9.00;99.90
60723;DHT22;46574;52.818;6.516;2023-02-19T04:11:51;9.00;99.90
60723;DHT22;46574;52.818;6.516;2023-02-19T04:14:28;9.00;99.90
60723;DHT22;46574;52.818;6.516;2023-02-19T04:17:08;9.00;99.90
60723;DHT22;46574;52.818;6.516;2023-02-19T04:19:36;8.90;99.90
60723;DHT22;46574;52.818;6.516;2023-02-19T04:22:05;8.90;99.90
60723;DHT22;46574;52.818;6.516;2023-02-19T04:24:56;8.90;99.90
60723;DHT22;46574;52.818;6.516;2023-02-19T04:27:21;8.90;99.90
60723;DHT22;46574;52.818;6.516;2023-02-19T04:29:46;8.90;99.90
60723;DHT22;46574;52.818;6.516;2023-02-19T04:32:13;8.90;99.90
60723;DHT22;46574;52.818;6.516;2023-02-19T04:34:39;8.90;99.90
60723;DHT22;46574;52.818;6.516;2023-02-19T04:37:05;8.90;99.90
60723;DHT22;46574;52.818;6.516;2023-02-19T04:39:30;8.90;99.90
60723;DHT22;46574;52.818;6.516;2023-02-19T04:41:56;8.80;99.90
60723;DHT22;46574;52.818;6.516;2023-02-19T04:44:22;8.80;99.90
60723;DHT22;46574;52.818;6.516;2023-02-19T04:46:48;8.70;99.90
60723;DHT22;46574;52.818;6.516;2023-02-19T04:49:14;8.50;99.90
60723;DHT22;46574;52.818;6.516;2023-02-19T04:51:40;8.40;99.90
60723;DHT22;46574;52.818;6.516;2023-02-19T04:54:05;8.40;99.90
60723;DHT22;46574;52.818;6.516;2023-02-19T04:56:31;8.30;99.90
60723;DHT22;46574;52.818;6.516;2023-02-19T04:58:57;8.20;99.90
60723;DHT22;46574;52.818;6.516;2023-02-19T05:01:23;8.20;99.90
60723;DHT22;46574;52.818;6.516;2023-02-19T05:03:49;8.20;99.90
60723;DHT22;46574;52.818;6.516;2023-02-19T05:06:15;8.10;99.90
60723;DHT22;46574;52.818;6.516;2023-02-19T05:08:41;8.00;99.90
60723;DHT22;46574;52.818;6.516;2023-02-19T05:11:08;8.00;99.90
60723;DHT22;46574;52.818;6.516;2023-02-19T05:13:35;7.90;99.90
60723;DHT22;46574;52.818;6.516;2023-02-19T05:16:06;7.80;99.90
60723;DHT22;46574;52.818;6.516;2023-02-19T05:18:33;7.70;99.90
60723;DHT22;46574;52.818;6.516;2023-02-19T05:20:59;7.50;99.90
60723;DHT22;46574;52.818;6.516;2023-02-19T05:23:26;7.50;99.90
60723;DHT22;46574;52.818;6.516;2023-02-19T05:25:52;7.40;99.90
60723;DHT22;46574;52.818;6.516;2023-02-19T05:28:19;7.40;99.90
60723;DHT22;46574;52.818;6.516;2023-02-19T05:30:49;7.40;99.90
60723;DHT22;46574;52.818;6.516;2023-02-19T05:33:17;7.40;99.90
60723;DHT22;46574;52.818;6.516;2023-02-19T05:35:48;7.40;99.90
60723;DHT22;46574;52.818;6.516;2023-02-19T05:38:15;7.40;99.90
60723;DHT22;46574;52.818;6.516;2023-02-19T05:40:42;7.30;99.90
60723;DHT22;46574;52.818;6.516;2023-02-19T05:43:08;7.30;99.90
60723;DHT22;46574;52.818;6.516;2023-02-19T05:45:34;7.30;99.90
60723;DHT22;46574;52.818;6.516;2023-02-19T05:48:00;7.30;99.90
60723;DHT22;46574;52.818;6.516;2023-02-19T05:50:26;7.30;99.90
60723;DHT22;46574;52.818;6.516;2023-02-19T05:52:52;7.30;99.90
60723;DHT22;46574;52.818;6.516;2023-02-19T05:55:18;7.20;99.90
60723;DHT22;46574;52.818;6.516;2023-02-19T05:57:46;7.20;99.90
60723;DHT22;46574;52.818;6.516;2023-02-19T06:00:14;7.30;99.90
60723;DHT22;46574;52.818;6.516;2023-02-19T06:02:40;7.30;99.90
60723;DHT22;46574;52.818;6.516;2023-02-19T06:05:06;7.20;99.90
60723;DHT22;46574;52.818;6.516;2023-02-19T06:07:32;7.20;99.90
60723;DHT22;46574;52.818;6.516;2023-02-19T06:09:58;7.20;99.90
60723;DHT22;46574;52.818;6.516;2023-02-19T06:12:24;7.20;99.90
60723;DHT22;46574;52.818;6.516;2023-02-19T06:14:49;7.10;99.90
60723;DHT22;46574;52.818;6.516;2023-02-19T06:17:15;7.20;99.90
60723;DHT22;46574;52.818;6.516;2023-02-19T06:19:41;7.20;99.90
60723;DHT22;46574;52.818;6.516;2023-02-19T06:22:07;7.20;99.90
60723;DHT22;46574;52.818;6.516;2023-02-19T06:24:33;7.10;99.90
60723;DHT22;46574;52.818;6.516;2023-02-19T06:27:00;7.10;99.90
60723;DHT22;46574;52.818;6.516;2023-02-19T06:29:26;7.10;99.90
60723;DHT22;46574;52.818;6.516;2023-02-19T06:31:51;7.10;99.90
60723;DHT22;46574;52.818;6.516;2023-02-19T06:34:17;7.00;99.90
60723;DHT22;46574;52.818;6.516;2023-02-19T06:36:43;7.00;99.90
60723;DHT22;46574;52.818;6.516;2023-02-19T06:39:09;7.00;99.90
60723;DHT22;46574;52.818;6.516;2023-02-19T06:41:35;7.00;99.90
60723;DHT22;46574;52.818;6.516;2023-02-19T06:44:00;7.10;99.90
60723;DHT22;46574;52.818;6.516;2023-02-19T06:46:26;7.00;99.90
60723;DHT22;46574;52.818;6.516;2023-02-19T06:48:52;7.00;99.90
60723;DHT22;46574;52.818;6.516;2023-02-19T06:51:18;7.00;99.90
60723;DHT22;46574;52.818;6.516;2023-02-19T06:53:48;7.00;99.90
60723;DHT22;46574;52.818;6.516;2023-02-19T06:56:29;6.90;99.90
60723;DHT22;46574;52.818;6.516;2023-02-19T06:58:57;7.00;99.90
60723;DHT22;46574;52.818;6.516;2023-02-19T07:01:25;6.90;99.90
60723;DHT22;46574;52.818;6.516;2023-02-19T07:03:51;6.90;99.90
60723;DHT22;46574;52.818;6.516;2023-02-19T07:06:18;6.80;99.90
60723;DHT22;46574;52.818;6.516;2023-02-19T07:08:44;6.80;99.90
60723;DHT22;46574;52.818;6.516;2023-02-19T07:11:09;6.80;99.90
60723;DHT22;46574;52.818;6.516;2023-02-19T07:13:35;6.70;99.90
60723;DHT22;46574;52.818;6.516;2023-02-19T07:16:03;6.80;99.90
60723;DHT22;46574;52.818;6.516;2023-02-19T07:18:30;6.80;99.90
60723;DHT22;46574;52.818;6.516;2023-02-19T07:21:09;6.80;99.90
60723;DHT22;46574;52.818;6.516;2023-02-19T07:23:35;6.70;99.90
60723;DHT22;46574;52.818;6.516;2023-02-19T07:26:01;6.60;99.90
60723;DHT22;46574;52.818;6.516;2023-02-19T07:28:27;6.60;99.90
60723;DHT22;46574;52.818;6.516;2023-02-19T07:30:53;6.60;99.90
60723;DHT22;46574;52.818;6.516;2023-02-19T07:33:24;6.60;99.90
60723;DHT22;46574;52.818;6.516;2023-02-19T07:35:50;6.60;99.90
60723;DHT22;46574;52.818;6.516;2023-02-19T07:38:20;6.60;99.90
60723;DHT22;46574;52.818;6.516;2023-02-19T07:40:53;6.60;99.90
60723;DHT22;46574;52.818;6.516;2023-02-19T07:43:20;6.60;99.90
60723;DHT22;46574;52.818;6.516;2023-02-19T07:45:46;6.50;99.90
60723;DHT22;46574;52.818;6.516;2023-02-19T07:48:11;6.60;99.90
60723;DHT22;46574;52.818;6.516;2023-02-19T07:50:37;6.50;99.90
60723;DHT22;46574;52.818;6.516;2023-02-19T07:53:03;6.60;99.90
60723;DHT22;46574;52.818;6.516;2023-02-19T07:55:31;6.60;99.90
60723;DHT22;46574;52.818;6.516;2023-02-19T07:57:58;6.70;99.90
60723;DHT22;46574;52.818;6.516;2023-02-19T08:00:24;6.70;99.90
60723;DHT22;46574;52.818;6.516;2023-02-19T08:02:51;6.60;99.90
60723;DHT22;46574;52.818;6.516;2023-02-19T08:05:40;6.60;99.90
60723;DHT22;46574;52.818;6.516;2023-02-19T08:08:07;6.60;99.90
60723;DHT22;46574;52.818;6.516;2023-02-19T08:10:33;6.60;99.90
60723;DHT22;46574;52.818;6.516;2023-02-19T08:13:17;6.60;99.90
60723;DHT22;46574;52.818;6.516;2023-02-19T08:18:28;6.70;99.90
60723;DHT22;46574;52.818;6.516;2023-02-19T08:20:54;6.70;99.90
60723;DHT22;46574;52.818;6.516;2023-02-19T08:23:20;6.80;99.90
60723;DHT22;46574;52.818;6.516;2023-02-19T08:25:47;6.80;99.90
60723;DHT22;46574;52.818;6.516;2023-02-19T08:28:13;6.90;99.90
60723;DHT22;46574;52.818;6.516;2023-02-19T08:30:41;6.80;99.90
60723;DHT22;46574;52.818;6.516;2023-02-19T08:33:09;6.80;99.90
60723;DHT22;46574;52.818;6.516;2023-02-19T08:35:36;6.70;99.90
60723;DHT22;46574;52.818;6.516;2023-02-19T08:38:03;6.70;99.90
60723;DHT22;46574;52.818;6.516;2023-02-19T08:40:28;6.70;99.90
60723;DHT22;46574;52.818;6.516;2023-02-19T08:42:54;6.70;99.90
60723;DHT22;46574;52.818;6.516;2023-02-19T08:45:20;6.70;99.90
60723;DHT22;46574;52.818;6.516;2023-02-19T08:47:47;6.70;99.90
60723;DHT22;46574;52.818;6.516;2023-02-19T08:50:13;6.70;99.90
60723;DHT22;46574;52.818;6.516;2023-02-19T08:52:39;6.80;99.90
60723;DHT22;46574;52.818;6.516;2023-02-19T08:55:05;6.90;99.90
60723;DHT22;46574;52.818;6.516;2023-02-19T08:57:31;6.80;99.90
60723;DHT22;46574;52.818;6.516;2023-02-19T08:59:59;6.80;99.90
60723;DHT22;46574;52.818;6.516;2023-02-19T09:02:25;6.90;99.90
60723;DHT22;46574;52.818;6.516;2023-02-19T09:04:50;6.90;99.90
60723;DHT22;46574;52.818;6.516;2023-02-19T09:07:16;6.90;99.90
60723;DHT22;46574;52.818;6.516;2023-02-19T09:09:42;6.90;99.90
60723;DHT22;46574;52.818;6.516;2023-02-19T09:12:10;6.90;99.90
60723;DHT22;46574;52.818;6.516;2023-02-19T09:14:36;6.90;99.90
60723;DHT22;46574;52.818;6.516;2023-02-19T09:17:04;6.80;99.90
60723;DHT22;46574;52.818;6.516;2023-02-19T09:19:30;6.80;99.90
60723;DHT22;46574;52.818;6.516;2023-02-19T09:21:56;6.80;99.90
60723;DHT22;46574;52.818;6.516;2023-02-19T09:24:23;6.80;99.90
60723;DHT22;46574;52.818;6.516;2023-02-19T09:26:52;6.80;99.90
60723;DHT22;46574;52.818;6.516;2023-02-19T09:29:19;6.80;99.90
60723;DHT22;46574;52.818;6.516;2023-02-19T09:31:45;6.80;99.90
60723;DHT22;46574;52.818;6.516;2023-02-19T09:34:12;6.80;99.90
60723;DHT22;46574;52.818;6.516;2023-02-19T09:36:38;6.90;99.90
60723;DHT22;46574;52.818;6.516;2023-02-19T09:39:06;7.00;99.90
60723;DHT22;46574;52.818;6.516;2023-02-19T09:41:35;7.10;99.90
60723;DHT22;46574;52.818;6.516;2023-02-19T09:44:03;7.30;99.90
60723;DHT22;46574;52.818;6.516;2023-02-19T09:46:43;7.40;99.90
60723;DHT22;46574;52.818;6.516;2023-02-19T09:49:16;7.40;99.90
60723;DHT22;46574;52.818;6.516;2023-02-19T09:52:13;7.40;99.90
60723;DHT22;46574;52.818;6.516;2023-02-19T09:54:43;7.40;99.90
60723;DHT22;46574;52.818;6.516;2023-02-19T09:57:16;7.30;99.90
60723;DHT22;46574;52.818;6.516;2023-02-19T09:59:49;7.20;99.90
60723;DHT22;46574;52.818;6.516;2023-02-19T10:02:21;7.20;99.90
60723;DHT22;46574;52.818;6.516;2023-02-19T10:04:49;7.30;99.90
60723;DHT22;46574;52.818;6.516;2023-02-19T10:07:23;7.30;99.90
60723;DHT22;46574;52.818;6.516;2023-02-19T10:09:58;7.40;99.90
60723;DHT22;46574;52.818;6.516;2023-02-19T10:12:28;7.50;99.90
60723;DHT22;46574;52.818;6.516;2023-02-19T10:14:59;7.60;99.90
60723;DHT22;46574;52.818;6.516;2023-02-19T10:17:29;7.80;99.90
60723;DHT22;46574;52.818;6.516;2023-02-19T10:19:57;7.90;99.90
60723;DHT22;46574;52.818;6.516;2023-02-19T10:22:23;8.20;99.90
60723;DHT22;46574;52.818;6.516;2023-02-19T10:24:52;8.30;99.90
60723;DHT22;46574;52.818;6.516;2023-02-19T10:27:18;8.30;99.90
60723;DHT22;46574;52.818;6.516;2023-02-19T10:29:46;8.40;99.90
60723;DHT22;46574;52.818;6.516;2023-02-19T10:34:38;8.70;99.90
60723;DHT22;46574;52.818;6.516;2023-02-19T10:37:03;8.90;99.90
60723;DHT22;46574;52.818;6.516;2023-02-19T10:42:13;8.50;99.90
60723;DHT22;46574;52.818;6.516;2023-02-19T10:44:43;8.30;99.90
60723;DHT22;46574;52.818;6.516;2023-02-19T10:47:19;8.10;99.90
60723;DHT22;46574;52.818;6.516;2023-02-19T10:49:47;8.00;99.90
60723;DHT22;46574;52.818;6.516;2023-02-19T10:52:24;7.80;99.90
60723;DHT22;46574;52.818;6.516;2023-02-19T10:54:56;7.80;99.90
60723;DHT22;46574;52.818;6.516;2023-02-19T10:57:26;7.90;99.90
60723;DHT22;46574;52.818;6.516;2023-02-19T11:02:42;8.00;99.90
60723;DHT22;46574;52.818;6.516;2023-02-19T11:07:35;8.30;99.90
60723;DHT22;46574;52.818;6.516;2023-02-19T11:10:03;8.40;99.90
60723;DHT22;46574;52.818;6.516;2023-02-19T11:12:31;8.70;99.90
60723;DHT22;46574;52.818;6.516;2023-02-19T11:15:39;8.80;99.90
60723;DHT22;46574;52.818;6.516;2023-02-19T11:21:23;8.70;99.90
60723;DHT22;46574;52.818;6.516;2023-02-19T11:23:49;8.60;99.90
60723;DHT22;46574;52.818;6.516;2023-02-19T11:26:19;8.60;99.90
60723;DHT22;46574;52.818;6.516;2023-02-19T11:28:55;8.60;99.90
60723;DHT22;46574;52.818;6.516;2023-02-19T11:31:29;8.50;99.90
60723;DHT22;46574;52.818;6.516;2023-02-19T11:34:02;8.50;99.90
60723;DHT22;46574;52.818;6.516;2023-02-19T11:36:36;8.60;99.90
60723;DHT22;46574;52.818;6.516;2023-02-19T11:45:08;9.10;99.90
60723;DHT22;46574;52.818;6.516;2023-02-19T12:01:57;9.30;99.90
60723;DHT22;46574;52.818;6.516;2023-02-19T12:10:00;9.40;99.90
60723;DHT22;46574;52.818;6.516;2023-02-19T12:15:49;9.50;99.90
60723;DHT22;46574;52.818;6.516;2023-02-19T12:32:46;9.30;99.90
60723;DHT22;46574;52.818;6.516;2023-02-19T12:35:25;9.20;99.90
60723;DHT22;46574;52.818;6.516;2023-02-19T12:38:19;9.30;99.90
60723;DHT22;46574;52.818;6.516;2023-02-19T12:40:59;9.30;99.90
60723;DHT22;46574;52.818;6.516;2023-02-19T12:43:29;9.30;99.90
60723;DHT22;46574;52.818;6.516;2023-02-19T12:48:33;9.30;99.90
60723;DHT22;46574;52.818;6.516;2023-02-19T12:53:55;9.30;99.90
60723;DHT22;46574;52.818;6.516;2023-02-19T12:56:54;9.30;99.90
60723;DHT22;46574;52.818;6.516;2023-02-19T13:02:19;9.10;99.90
60723;DHT22;46574;52.818;6.516;2023-02-19T13:05:02;9.10;99.90
60723;DHT22;46574;52.818;6.516;2023-02-19T13:07:38;9.00;99.90
60723;DHT22;46574;52.818;6.516;2023-02-19T13:12:47;9.00;99.90
60723;DHT22;46574;52.818;6.516;2023-02-19T13:15:20;9.00;99.90
60723;DHT22;46574;52.818;6.516;2023-02-19T13:20:32;9.00;99.90
60723;DHT22;46574;52.818;6.516;2023-02-19T13:23:22;9.00;99.90
60723;DHT22;46574;52.818;6.516;2023-02-19T13:26:23;9.00;99.90
60723;DHT22;46574;52.818;6.516;2023-02-19T13:37:22;9.00;99.90
60723;DHT22;46574;52.818;6.516;2023-02-19T13:39:50;9.10;99.90
60723;DHT22;46574;52.818;6.516;2023-02-19T13:42:28;9.10;99.90
60723;DHT22;46574;52.818;6.516;2023-02-19T13:44:55;9.10;99.90
60723;DHT22;46574;52.818;6.516;2023-02-19T13:50:28;9.10;99.90
60723;DHT22;46574;52.818;6.516;2023-02-19T13:52:58;9.10;99.90
60723;DHT22;46574;52.818;6.516;2023-02-19T14:04:05;8.90;99.90
60723;DHT22;46574;52.818;6.516;2023-02-19T14:14:50;8.80;99.90
60723;DHT22;46574;52.818;6.516;2023-02-19T14:17:37;8.80;99.90
60723;DHT22;46574;52.818;6.516;2023-02-19T14:25:19;8.90;99.90
60723;DHT22;46574;52.818;6.516;2023-02-19T14:27:47;8.90;99.90
60723;DHT22;46574;52.818;6.516;2023-02-19T14:30:13;8.90;99.90
60723;DHT22;46574;52.818;6.516;2023-02-19T14:32:41;8.90;99.90
60723;DHT22;46574;52.818;6.516;2023-02-19T14:35:18;8.90;99.90
60723;DHT22;46574;52.818;6.516;2023-02-19T14:37:44;9.00;99.90
60723;DHT22;46574;52.818;6.516;2023-02-19T14:40:31;9.00;99.90
60723;DHT22;46574;52.818;6.516;2023-02-19T14:42:58;9.00;99.90
60723;DHT22;46574;52.818;6.516;2023-02-19T14:45:26;9.00;99.90
60723;DHT22;46574;52.818;6.516;2023-02-19T14:47:53;9.10;99.90
60723;DHT22;46574;52.818;6.516;2023-02-19T14:50:27;9.10;99.90
60723;DHT22;46574;52.818;6.516;2023-02-19T14:52:57;9.10;99.90
60723;DHT22;46574;52.818;6.516;2023-02-19T14:55:32;9.10;99.90
60723;DHT22;46574;52.818;6.516;2023-02-19T14:58:03;9.10;99.90
60723;DHT22;46574;52.818;6.516;2023-02-19T15:00:34;9.10;99.90
60723;DHT22;46574;52.818;6.516;2023-02-19T15:03:02;9.20;99.90
60723;DHT22;46574;52.818;6.516;2023-02-19T15:05:34;9.20;99.90
60723;DHT22;46574;52.818;6.516;2023-02-19T15:08:07;9.10;99.90
60723;DHT22;46574;52.818;6.516;2023-02-19T15:10:34;8.90;99.90
60723;DHT22;46574;52.818;6.516;2023-02-19T15:13:03;8.90;99.90
60723;DHT22;46574;52.818;6.516;2023-02-19T15:15:32;8.80;99.90
60723;DHT22;46574;52.818;6.516;2023-02-19T15:18:00;8.70;99.90
60723;DHT22;46574;52.818;6.516;2023-02-19T15:20:35;8.60;99.90
60723;DHT22;46574;52.818;6.516;2023-02-19T15:23:04;8.60;99.90
60723;DHT22;46574;52.818;6.516;2023-02-19T15:25:35;8.60;99.90
60723;DHT22;46574;52.818;6.516;2023-02-19T15:33:21;8.60;99.90
60723;DHT22;46574;52.818;6.516;2023-02-19T15:36:07;8.60;99.90
60723;DHT22;46574;52.818;6.516;2023-02-19T15:38:34;8.70;99.90
60723;DHT22;46574;52.818;6.516;2023-02-19T15:41:00;8.70;99.90
60723;DHT22;46574;52.818;6.516;2023-02-19T15:43:41;8.80;99.90
60723;DHT22;46574;52.818;6.516;2023-02-19T15:46:27;8.90;99.90
60723;DHT22;46574;52.818;6.516;2023-02-19T15:51:36;8.90;99.90
60723;DHT22;46574;52.818;6.516;2023-02-19T15:56:48;8.80;99.90
60723;DHT22;46574;52.818;6.516;2023-02-19T15:59:23;8.70;99.90
60723;DHT22;46574;52.818;6.516;2023-02-19T16:01:50;8.60;99.90
60723;DHT22;46574;52.818;6.516;2023-02-19T16:04:17;8.60;99.90
60723;DHT22;46574;52.818;6.516;2023-02-19T16:09:19;8.50;99.90
60723;DHT22;46574;52.818;6.516;2023-02-19T16:11:51;8.50;99.90
60723;DHT22;46574;52.818;6.516;2023-02-19T16:16:45;8.40;99.90
60723;DHT22;46574;52.818;6.516;2023-02-19T16:19:11;8.40;99.90
60723;DHT22;46574;52.818;6.516;2023-02-19T16:21:37;8.40;99.90
60723;DHT22;46574;52.818;6.516;2023-02-19T16:24:15;8.30;99.90
60723;DHT22;46574;52.818;6.516;2023-02-19T16:26:44;8.30;99.90
60723;DHT22;46574;52.818;6.516;2023-02-19T16:29:22;8.30;99.90
60723;DHT22;46574;52.818;6.516;2023-02-19T16:31:57;8.20;99.90
60723;DHT22;46574;52.818;6.516;2023-02-19T16:34:46;8.20;99.90
60723;DHT22;46574;52.818;6.516;2023-02-19T16:37:33;8.20;99.90
60723;DHT22;46574;52.818;6.516;2023-02-19T16:45:25;8.10;99.90
60723;DHT22;46574;52.818;6.516;2023-02-19T16:47:51;8.10;99.90
60723;DHT22;46574;52.818;6.516;2023-02-19T16:50:19;8.00;99.90
60723;DHT22;46574;52.818;6.516;2023-02-19T16:52:54;8.00;99.90
60723;DHT22;46574;52.818;6.516;2023-02-19T16:55:20;7.90;99.90
60723;DHT22;46574;52.818;6.516;2023-02-19T16:57:46;7.90;99.90
60723;DHT22;46574;52.818;6.516;2023-02-19T17:00:16;7.90;99.90
60723;DHT22;46574;52.818;6.516;2023-02-19T17:02:45;7.90;99.90
60723;DHT22;46574;52.818;6.516;2023-02-19T17:05:11;7.80;99.90
60723;DHT22;46574;52.818;6.516;2023-02-19T17:07:37;7.80;99.90
60723;DHT22;46574;52.818;6.516;2023-02-19T17:10:03;7.80;99.90
60723;DHT22;46574;52.818;6.516;2023-02-19T17:12:28;7.80;99.90
60723;DHT22;46574;52.818;6.516;2023-02-19T17:14:54;7.80;99.90
60723;DHT22;46574;52.818;6.516;2023-02-19T17:17:20;7.80;99.90
60723;DHT22;46574;52.818;6.516;2023-02-19T17:19:45;7.70;99.90
60723;DHT22;46574;52.818;6.516;2023-02-19T17:22:11;7.70;99.90
60723;DHT22;46574;52.818;6.516;2023-02-19T17:24:44;7.60;99.90
60723;DHT22;46574;52.818;6.516;2023-02-19T17:27:11;7.60;99.90
60723;DHT22;46574;52.818;6.516;2023-02-19T17:29:38;7.60;99.90
60723;DHT22;46574;52.818;6.516;2023-02-19T17:32:03;7.60;99.90
60723;DHT22;46574;52.818;6.516;2023-02-19T17:34:29;7.60;99.90
60723;DHT22;46574;52.818;6.516;2023-02-19T17:36:55;7.50;99.90
60723;DHT22;46574;52.818;6.516;2023-02-19T17:39:20;7.50;99.90
60723;DHT22;46574;52.818;6.516;2023-02-19T17:41:48;7.50;99.90
60723;DHT22;46574;52.818;6.516;2023-02-19T17:44:13;7.50;99.90
60723;DHT22;46574;52.818;6.516;2023-02-19T17:46:40;7.40;99.90
60723;DHT22;46574;52.818;6.516;2023-02-19T17:49:06;7.40;99.90
60723;DHT22;46574;52.818;6.516;2023-02-19T17:51:33;7.40;99.90
60723;DHT22;46574;52.818;6.516;2023-02-19T17:53:59;7.30;99.90
60723;DHT22;46574;52.818;6.516;2023-02-19T17:56:26;7.30;99.90
60723;DHT22;46574;52.818;6.516;2023-02-19T17:58:53;7.30;99.90
60723;DHT22;46574;52.818;6.516;2023-02-19T18:01:19;7.20;99.90
60723;DHT22;46574;52.818;6.516;2023-02-19T18:03:44;7.20;99.90
60723;DHT22;46574;52.818;6.516;2023-02-19T18:06:10;7.20;99.90
60723;DHT22;46574;52.818;6.516;2023-02-19T18:08:36;7.10;99.90
60723;DHT22;46574;52.818;6.516;2023-02-19T18:11:02;7.10;99.90
60723;DHT22;46574;52.818;6.516;2023-02-19T18:13:28;7.00;99.90
60723;DHT22;46574;52.818;6.516;2023-02-19T18:15:54;7.00;99.90
60723;DHT22;46574;52.818;6.516;2023-02-19T18:18:20;7.00;99.90
60723;DHT22;46574;52.818;6.516;2023-02-19T18:20:48;7.00;99.90
60723;DHT22;46574;52.818;6.516;2023-02-19T18:23:14;6.90;99.90
60723;DHT22;46574;52.818;6.516;2023-02-19T18:25:39;6.90;99.90
60723;DHT22;46574;52.818;6.516;2023-02-19T18:28:05;6.90;99.90
60723;DHT22;46574;52.818;6.516;2023-02-19T18:30:31;6.90;99.90